createdAt,value
2018-08-07T00:03:23.681Z,18.8
2018-08-07T00:08:48.162Z,18.8
2018-08-07T00:14:17.939Z,18.8
2018-08-07T00:19:47.546Z,18.8
2018-08-07T00:25:17.240Z,18.7
2018-08-07T00:30:51.967Z,18.7
2018-08-07T00:36:22.707Z,18.6
2018-08-07T00:41:47.412Z,18.6
2018-08-07T00:47:22.129Z,18.5
2018-08-07T00:52:48.366Z,18.4
2018-08-07T00:58:18.020Z,18.3
2018-08-07T01:03:47.406Z,18.3
2018-08-07T01:09:22.835Z,18.2
2018-08-07T01:14:48.487Z,18.2
2018-08-07T01:20:19.191Z,18.1
2018-08-07T01:25:48.862Z,18
2018-08-07T01:31:18.454Z,18
2018-08-07T01:36:54.343Z,18
2018-08-07T01:42:24.738Z,18
2018-08-07T01:47:49.349Z,18
2018-08-07T01:53:20.081Z,18
2018-08-07T01:58:50.917Z,18
2018-08-07T02:04:26.897Z,18.1
2018-08-07T02:09:51.033Z,18.1
2018-08-07T02:15:21.624Z,18.2
2018-08-07T02:15:23.254Z,18.2
2018-08-07T02:20:52.377Z,18.2
2018-08-07T02:26:22.960Z,18.2
2018-08-07T02:31:53.902Z,18.2
2018-08-07T02:37:23.310Z,18.3
2018-08-07T02:42:58.510Z,18.3
2018-08-07T02:48:22.869Z,18.2
2018-08-07T02:53:53.296Z,18.2
2018-08-07T02:59:29.002Z,18.2
2018-08-07T03:04:58.649Z,18.1
2018-08-07T03:10:24.251Z,18.1
2018-08-07T03:15:54.892Z,18
2018-08-07T03:21:24.504Z,18
2018-08-07T03:27:00.225Z,18
2018-08-07T03:32:30.089Z,18
2018-08-07T03:37:55.437Z,18
2018-08-07T03:43:30.400Z,18
2018-08-07T03:49:00.743Z,18
2018-08-07T03:54:31.873Z,18
2018-08-07T03:59:56.009Z,17.9
2018-08-07T04:05:30.684Z,17.9
2018-08-07T04:10:55.304Z,17.9
2018-08-07T04:16:24.959Z,18
2018-08-07T04:21:54.539Z,18
2018-08-07T04:27:24.196Z,18
2018-08-07T04:32:53.820Z,18
2018-08-07T04:38:23.474Z,18.1
2018-08-07T04:43:58.190Z,18.1
2018-08-07T04:49:23.747Z,18.2
2018-08-07T04:54:59.438Z,18.3
2018-08-07T05:00:25.079Z,18.4
2018-08-07T05:05:55.745Z,18.4
2018-08-07T05:11:27.022Z,18.5
2018-08-07T05:16:56.134Z,18.5
2018-08-07T05:22:25.841Z,18.6
2018-08-07T05:27:56.093Z,18.7
2018-08-07T05:33:26.246Z,18.7
2018-08-07T05:38:57.012Z,18.8
2018-08-07T05:44:26.721Z,19
2018-08-07T05:49:56.517Z,19.2
2018-08-07T05:55:31.093Z,19.4
2018-08-07T06:00:56.863Z,19.6
2018-08-07T06:06:27.680Z,19.8
2018-08-07T06:11:58.861Z,20.1
2018-08-07T06:17:33.349Z,20.3
2018-08-07T06:22:59.140Z,20.4
2018-08-07T06:28:34.029Z,20.6
2018-08-07T06:33:58.915Z,20.7
2018-08-07T06:39:28.747Z,20.8
2018-08-07T06:45:00.082Z,21
2018-08-07T06:50:36.048Z,21.1
2018-08-07T06:56:00.544Z,21.3
2018-08-07T07:01:35.527Z,21.4
2018-08-07T07:07:00.485Z,21.5
2018-08-07T07:12:31.822Z,21.7
2018-08-07T07:18:02.465Z,21.8
2018-08-07T07:23:33.488Z,22
2018-08-07T07:29:04.629Z,22.1
2018-08-07T07:34:34.690Z,22.3
2018-08-07T07:40:04.688Z,22.5
2018-08-07T07:45:34.760Z,22.6
2018-08-07T07:51:04.901Z,22.8
2018-08-07T07:56:41.040Z,23
2018-08-07T08:02:06.649Z,23.2
2018-08-07T08:07:42.491Z,23.4
2018-08-07T08:13:08.759Z,23.7
2018-08-07T08:18:39.888Z,23.9
2018-08-07T08:24:10.237Z,24.1
2018-08-07T08:29:41.966Z,24.2
2018-08-07T08:35:12.826Z,24.3
2018-08-07T08:40:44.097Z,24.5
2018-08-07T08:46:14.543Z,24.7
2018-08-07T08:51:49.938Z,24.8
2018-08-07T08:57:20.243Z,25
2018-08-07T09:02:52.966Z,25.2
2018-08-07T09:08:16.140Z,25.4
2018-08-07T09:13:46.625Z,25.6
2018-08-07T09:19:17.108Z,25.7
2018-08-07T09:24:48.106Z,25.9
2018-08-07T09:30:19.561Z,26.1
2018-08-07T09:35:55.744Z,26.3
2018-08-07T09:41:21.582Z,26.4
2018-08-07T09:46:53.108Z,26.6
2018-08-07T09:52:24.869Z,26.8
2018-08-07T09:57:56.236Z,26.9
2018-08-07T10:03:27.853Z,27.1
2018-08-07T10:09:04.651Z,27.3
2018-08-07T10:14:31.359Z,27.4
2018-08-07T10:20:02.158Z,27.6
2018-08-07T10:25:34.142Z,27.8
2018-08-07T10:31:05.645Z,28
2018-08-07T10:36:37.472Z,28.2
2018-08-07T10:42:08.373Z,28.3
2018-08-07T10:47:40.248Z,28.4
2018-08-07T10:53:12.053Z,28.5
2018-08-07T10:58:47.933Z,28.6
2018-08-07T11:04:19.227Z,28.7
2018-08-07T11:09:45.781Z,28.9
2018-08-07T11:15:16.769Z,29
2018-08-07T11:20:47.773Z,29.1
2018-08-07T11:26:18.852Z,29.1
2018-08-07T11:31:54.757Z,29.2
2018-08-07T11:37:20.762Z,29.3
2018-08-07T11:42:58.079Z,29.4
2018-08-07T11:48:23.916Z,29.3
2018-08-07T11:53:54.879Z,29.3
2018-08-07T12:05:02.925Z,29.4
2018-08-07T12:10:30.215Z,29.5
2018-08-07T12:16:06.032Z,29.6
2018-08-07T12:21:32.363Z,29.6
2018-08-07T12:27:03.305Z,29.6
2018-08-07T12:32:34.543Z,29.6
2018-08-07T12:38:06.517Z,29.7
2018-08-07T12:43:38.303Z,29.9
2018-08-07T12:49:09.421Z,30.1
2018-08-07T12:54:41.739Z,30.3
2018-08-07T13:00:18.385Z,30.4
2018-08-07T13:05:43.884Z,30.6
2018-08-07T13:11:16.589Z,30.8
2018-08-07T13:17:14.371Z,30.8
2018-08-07T13:22:24.559Z,30.9
2018-08-07T13:27:50.807Z,31
2018-08-07T13:33:22.251Z,31
2018-08-07T13:38:59.624Z,31.1
2018-08-07T13:44:25.619Z,31.1
2018-08-07T13:50:03.341Z,31.1
2018-08-07T13:55:30.213Z,31.2
2018-08-07T14:01:07.447Z,31.1
2018-08-07T14:06:34.965Z,31.1
2018-08-07T14:12:07.056Z,31.2
2018-08-07T14:17:39.267Z,31.2
2018-08-07T14:23:10.569Z,31.2
2018-08-07T14:28:47.182Z,31.2
2018-08-07T14:34:18.143Z,31.2
2018-08-07T14:39:44.477Z,31.3
2018-08-07T14:45:15.766Z,31.3
2018-08-07T14:50:52.088Z,31.4
2018-08-07T14:56:19.645Z,31.3
2018-08-07T15:01:51.675Z,31.3
2018-08-07T15:01:52.783Z,31.3
2018-08-07T15:07:23.032Z,31.3
2018-08-07T15:12:59.416Z,31.4
2018-08-07T15:18:27.173Z,31.4
2018-08-07T15:23:58.236Z,31.4
2018-08-07T15:29:29.928Z,31.3
2018-08-07T15:35:00.618Z,31.2
2018-08-07T15:40:32.942Z,31.1
2018-08-07T15:46:10.508Z,31.1
2018-08-07T15:51:37.485Z,31.1
2018-08-07T15:57:08.788Z,31.1
2018-08-07T16:02:41.042Z,31
2018-08-07T16:08:17.740Z,31
2018-08-07T16:13:49.688Z,30.9
2018-08-07T16:19:16.888Z,30.9
2018-08-07T16:24:48.137Z,30.8
2018-08-07T16:30:19.532Z,30.7
2018-08-07T16:35:50.631Z,30.6
2018-08-07T16:41:22.583Z,30.6
2018-08-07T16:41:22.764Z,30.6
2018-08-07T16:46:58.111Z,30.5
2018-08-07T16:52:24.422Z,30.4
2018-08-07T16:57:56.629Z,30.2
2018-08-07T17:03:28.669Z,30.1
2018-08-07T17:09:00.814Z,29.9
2018-08-07T17:14:32.873Z,29.7
2018-08-07T17:20:09.226Z,29.6
2018-08-07T17:25:35.148Z,29.4
2018-08-07T17:31:07.593Z,29.2
2018-08-07T17:36:38.392Z,29
2018-08-07T17:42:09.131Z,28.8
2018-08-07T17:47:41.196Z,28.6
2018-08-07T17:53:13.370Z,28.5
2018-08-07T17:58:44.565Z,28.3
2018-08-07T18:04:15.080Z,28.2
2018-08-07T18:09:50.912Z,28.1
2018-08-07T18:15:18.176Z,28
2018-08-07T18:20:49.756Z,27.8
2018-08-07T18:26:20.500Z,27.7
2018-08-07T18:31:52.306Z,27.5
2018-08-07T18:37:23.103Z,27.4
2018-08-07T18:42:55.173Z,27.2
2018-08-07T18:48:25.705Z,27.1
2018-08-07T18:48:26.407Z,27.1
2018-08-07T18:53:56.513Z,26.9
2018-08-07T18:59:33.270Z,26.8
2018-08-07T19:04:57.820Z,26.6
2018-08-07T19:16:00.485Z,26.3
2018-08-07T19:21:36.873Z,26.1
2018-08-07T19:27:03.436Z,26
2018-08-07T19:32:34.105Z,25.9
2018-08-07T19:38:04.662Z,25.8
2018-08-07T19:43:36.473Z,25.7
2018-08-07T19:49:12.214Z,25.5
2018-08-07T19:54:42.542Z,25.4
2018-08-07T20:00:08.924Z,25.4
2018-08-07T20:05:45.565Z,25.3
2018-08-07T20:11:11.944Z,25.2
2018-08-07T20:16:43.461Z,25.2
2018-08-07T20:22:15.387Z,25.2
2018-08-07T20:22:19.964Z,25.2
2018-08-07T20:27:46.430Z,25.1
2018-08-07T20:33:17.283Z,25
2018-08-07T20:38:47.652Z,25
2018-08-07T20:44:17.917Z,24.9
2018-08-07T20:49:54.664Z,24.9
2018-08-07T20:55:20.842Z,24.8
2018-08-07T21:00:56.365Z,24.8
2018-08-07T21:06:21.775Z,24.8
2018-08-07T21:11:57.281Z,24.7
2018-08-07T21:22:54.293Z,24.5
2018-08-07T21:28:24.435Z,24.3
2018-08-07T21:33:54.777Z,24.1
2018-08-07T21:39:26.188Z,24
2018-08-07T21:45:01.653Z,23.9
2018-08-07T21:50:27.860Z,23.9
2018-08-07T21:55:58.218Z,23.8
2018-08-07T22:01:28.537Z,23.8
2018-08-07T22:07:00.163Z,23.8
2018-08-07T22:12:30.218Z,23.7
2018-08-07T22:18:00.981Z,23.7
2018-08-07T22:23:31.806Z,23.6
2018-08-07T22:29:03.115Z,23.6
2018-08-07T22:34:34.452Z,23.5
2018-08-07T22:40:05.704Z,23.4
2018-08-07T22:45:36.036Z,23.3
2018-08-07T22:51:12.306Z,23.3
2018-08-07T22:56:42.710Z,23.2
2018-08-07T23:02:08.694Z,23.2
2018-08-07T23:07:40.336Z,23.2
2018-08-07T23:13:16.529Z,23.1
2018-08-07T23:18:41.443Z,23.1
2018-08-07T23:24:12.294Z,23.1
2018-08-07T23:29:43.170Z,23.1
2018-08-07T23:35:14.179Z,23.1
2018-08-07T23:40:44.583Z,23.2
2018-08-07T23:46:15.786Z,23.2
2018-08-07T23:51:51.873Z,23.2
2018-08-07T23:57:17.377Z,23.1
